createdAt,value
2019-05-20T00:02:37.824Z,26.6
2019-05-20T00:07:47.586Z,26.6
2019-05-20T00:12:56.990Z,26.6
2019-05-20T00:18:06.431Z,26.6
2019-05-20T00:23:15.868Z,26.7
2019-05-20T00:28:25.037Z,26.7
2019-05-20T00:33:34.759Z,26.7
2019-05-20T00:38:44.194Z,26.7
2019-05-20T00:43:53.360Z,26.7
2019-05-20T00:49:02.809Z,26.7
2019-05-20T00:54:11.962Z,26.7
2019-05-20T00:59:21.411Z,26.7
2019-05-20T01:04:30.576Z,26.7
2019-05-20T01:09:39.737Z,26.7
2019-05-20T01:14:49.174Z,26.7
2019-05-20T01:19:58.609Z,26.7
2019-05-20T01:25:07.775Z,26.7
2019-05-20T01:30:17.500Z,26.7
2019-05-20T01:35:26.664Z,26.7
2019-05-20T01:40:36.387Z,26.7
2019-05-20T01:45:46.112Z,26.7
2019-05-20T01:50:54.999Z,26.7
2019-05-20T01:56:04.439Z,26.7
2019-05-20T02:01:13.606Z,26.7
2019-05-20T02:06:23.323Z,26.7
2019-05-20T02:11:32.763Z,26.7
2019-05-20T02:16:42.503Z,26.8
2019-05-20T02:21:52.217Z,26.8
2019-05-20T02:27:01.659Z,26.8
2019-05-20T02:32:10.824Z,26.8
2019-05-20T02:37:19.987Z,26.8
2019-05-20T02:42:29.433Z,26.8
2019-05-20T02:47:39.175Z,26.8
2019-05-20T02:52:48.602Z,26.8
2019-05-20T02:58:01.017Z,26.8
2019-05-20T03:03:10.499Z,26.8
2019-05-20T03:08:19.925Z,26.8
2019-05-20T03:13:29.375Z,26.8
2019-05-20T03:18:38.536Z,26.8
2019-05-20T03:23:47.986Z,26.8
2019-05-20T03:28:57.431Z,26.8
2019-05-20T03:34:06.868Z,26.8
2019-05-20T03:39:16.025Z,26.8
2019-05-20T03:44:25.562Z,26.8
2019-05-20T03:49:34.710Z,26.7
2019-05-20T03:54:44.150Z,26.7
2019-05-20T03:59:53.315Z,26.7
2019-05-20T07:25:39.548Z,31.2
2019-05-20T07:30:49.818Z,30.6
2019-05-20T07:32:22.357Z,30.1
2019-05-20T07:38:37.166Z,29.8
2019-05-20T07:43:48.869Z,27.4
2019-05-20T07:49:00.691Z,27
2019-05-20T07:54:12.491Z,26.9
2019-05-20T07:59:24.214Z,26.8
2019-05-20T08:04:36.039Z,26.7
2019-05-20T08:09:48.106Z,26.6
2019-05-20T08:14:59.833Z,26.6
2019-05-20T08:20:11.290Z,26.6
2019-05-20T08:25:23.103Z,26.6
2019-05-20T08:30:34.861Z,26.6
2019-05-20T08:35:46.657Z,26.6
2019-05-20T08:40:58.474Z,26.6
2019-05-20T08:46:10.284Z,26.6
2019-05-20T08:51:21.779Z,26.5
2019-05-20T09:43:47.529Z,26
2019-05-20T09:48:09.840Z,25.8
2019-05-20T09:51:58.976Z,25.8
2019-05-20T09:57:35.371Z,29.3
2019-05-20T10:02:46.842Z,27.1
2019-05-20T10:07:58.727Z,27.1
2019-05-20T10:13:10.657Z,27.2
2019-05-20T10:19:09.578Z,28.6
2019-05-20T10:24:21.503Z,25.9
2019-05-20T10:25:55.684Z,26
2019-05-20T10:31:07.870Z,26
2019-05-20T10:36:19.840Z,25.9
2019-05-20T10:41:31.846Z,25.8
2019-05-20T10:46:43.829Z,25.8
2019-05-20T10:51:55.831Z,25.8
2019-05-20T10:57:07.986Z,25.8
2019-05-20T11:02:20.015Z,25.9
2019-05-20T11:07:32.094Z,25.8
2019-05-20T11:12:44.142Z,26
2019-05-20T11:17:56.148Z,25.8
2019-05-20T11:23:08.159Z,25.9
2019-05-20T11:28:20.185Z,25.9
2019-05-20T11:33:33.384Z,25.9
2019-05-20T11:38:45.336Z,26.2
2019-05-20T11:44:11.884Z,26
2019-05-20T11:49:23.906Z,26
2019-05-20T11:54:40.419Z,26.1
2019-05-20T11:59:52.444Z,26.1
2019-05-20T12:05:04.460Z,26.2
2019-05-20T12:10:16.452Z,26.1
2019-05-20T12:15:28.593Z,26
2019-05-20T12:20:40.618Z,26
2019-05-20T12:25:52.623Z,26.1
2019-05-20T12:31:04.252Z,26.1
2019-05-20T12:36:17.474Z,26.1
2019-05-20T12:41:40.391Z,26.2
2019-05-20T12:42:20.100Z,26.1
2019-05-20T12:52:44.306Z,26
2019-05-20T12:57:56.319Z,26.1
